sensor_id;sensor_type;location;lat;lon;timestamp;pressure;altitude;pressure_sealevel;temperature;humidity
80248;BME280;69560;52.206;21.018;2024-02-23T00:01:05;98172.23;;;9.19;58.43
80248;BME280;69560;52.206;21.018;2024-02-23T00:03:49;98172.30;;;9.20;58.32
80248;BME280;69560;52.206;21.018;2024-02-23T00:06:16;98170.31;;;9.22;58.34
80248;BME280;69560;52.206;21.018;2024-02-23T00:08:43;98170.21;;;9.24;58.37
80248;BME280;69560;52.206;21.018;2024-02-23T00:11:09;98167.51;;;9.26;58.37
80248;BME280;69560;52.206;21.018;2024-02-23T00:13:36;98166.19;;;9.24;58.28
80248;BME280;69560;52.206;21.018;2024-02-23T00:16:03;98169.60;;;9.22;58.34
80248;BME280;69560;52.206;21.018;2024-02-23T00:18:29;98174.19;;;9.22;58.36
80248;BME280;69560;52.206;21.018;2024-02-23T00:20:56;98169.67;;;9.23;58.39
80248;BME280;69560;52.206;21.018;2024-02-23T00:23:22;98165.01;;;9.25;58.46
80248;BME280;69560;52.206;21.018;2024-02-23T00:25:49;98162.80;;;9.23;58.39
80248;BME280;69560;52.206;21.018;2024-02-23T00:28:15;98170.08;;;9.22;58.40
80248;BME280;69560;52.206;21.018;2024-02-23T00:30:42;98162.19;;;9.21;58.40
80248;BME280;69560;52.206;21.018;2024-02-23T00:33:08;98164.17;;;9.19;58.43
80248;BME280;69560;52.206;21.018;2024-02-23T00:35:36;98152.48;;;9.19;58.56
80248;BME280;69560;52.206;21.018;2024-02-23T00:38:03;98155.72;;;9.19;58.60
80248;BME280;69560;52.206;21.018;2024-02-23T00:40:29;98164.10;;;9.19;58.56
80248;BME280;69560;52.206;21.018;2024-02-23T00:42:56;98152.55;;;9.17;58.46
80248;BME280;69560;52.206;21.018;2024-02-23T00:45:22;98152.73;;;9.18;58.48
80248;BME280;69560;52.206;21.018;2024-02-23T00:47:49;98146.01;;;9.18;58.50
80248;BME280;69560;52.206;21.018;2024-02-23T00:50:16;98144.17;;;9.19;58.58
80248;BME280;69560;52.206;21.018;2024-02-23T00:52:42;98148.12;;;9.19;58.55
80248;BME280;69560;52.206;21.018;2024-02-23T00:55:09;98141.66;;;9.19;58.69
80248;BME280;69560;52.206;21.018;2024-02-23T00:57:38;98138.23;;;9.19;58.65
80248;BME280;69560;52.206;21.018;2024-02-23T01:00:05;98140.84;;;9.21;58.82
80248;BME280;69560;52.206;21.018;2024-02-23T01:02:32;98133.80;;;9.22;58.78
80248;BME280;69560;52.206;21.018;2024-02-23T01:05:01;98126.92;;;9.22;58.79
80248;BME280;69560;52.206;21.018;2024-02-23T01:07:28;98126.84;;;9.23;58.76
80248;BME280;69560;52.206;21.018;2024-02-23T01:09:55;98125.02;;;9.23;58.69
80248;BME280;69560;52.206;21.018;2024-02-23T01:12:22;98120.45;;;9.20;58.70
80248;BME280;69560;52.206;21.018;2024-02-23T01:14:48;98114.77;;;9.20;58.73
80248;BME280;69560;52.206;21.018;2024-02-23T01:17:15;98110.98;;;9.20;58.81
80248;BME280;69560;52.206;21.018;2024-02-23T01:19:43;98107.11;;;9.21;58.77
80248;BME280;69560;52.206;21.018;2024-02-23T01:22:10;98115.86;;;9.22;58.81
80248;BME280;69560;52.206;21.018;2024-02-23T01:24:37;98107.46;;;9.23;58.86
80248;BME280;69560;52.206;21.018;2024-02-23T01:27:03;98106.58;;;9.26;58.95
80248;BME280;69560;52.206;21.018;2024-02-23T01:29:30;98105.94;;;9.27;58.85
80248;BME280;69560;52.206;21.018;2024-02-23T01:31:56;98099.60;;;9.28;58.91
80248;BME280;69560;52.206;21.018;2024-02-23T01:34:22;98108.23;;;9.27;58.85
80248;BME280;69560;52.206;21.018;2024-02-23T01:36:49;98107.70;;;9.24;58.92
80248;BME280;69560;52.206;21.018;2024-02-23T01:39:16;98099.02;;;9.22;58.86
80248;BME280;69560;52.206;21.018;2024-02-23T01:41:42;98105.43;;;9.22;58.97
80248;BME280;69560;52.206;21.018;2024-02-23T01:44:11;98104.82;;;9.20;58.93
80248;BME280;69560;52.206;21.018;2024-02-23T01:46:37;98107.98;;;9.19;59.00
80248;BME280;69560;52.206;21.018;2024-02-23T01:49:05;98110.76;;;9.19;58.98
80248;BME280;69560;52.206;21.018;2024-02-23T01:51:34;98105.06;;;9.19;58.96
80248;BME280;69560;52.206;21.018;2024-02-23T01:54:01;98106.48;;;9.20;59.03
80248;BME280;69560;52.206;21.018;2024-02-23T01:56:29;98115.55;;;9.21;59.09
80248;BME280;69560;52.206;21.018;2024-02-23T01:58:57;98107.39;;;9.24;59.16
80248;BME280;69560;52.206;21.018;2024-02-23T02:01:23;98106.04;;;9.25;59.22
80248;BME280;69560;52.206;21.018;2024-02-23T02:03:51;98102.30;;;9.26;59.15
80248;BME280;69560;52.206;21.018;2024-02-23T02:06:19;98101.19;;;9.27;59.19
80248;BME280;69560;52.206;21.018;2024-02-23T02:08:45;98097.55;;;9.28;59.21
80248;BME280;69560;52.206;21.018;2024-02-23T02:11:12;98101.90;;;9.28;59.14
80248;BME280;69560;52.206;21.018;2024-02-23T02:13:38;98098.90;;;9.28;59.12
80248;BME280;69560;52.206;21.018;2024-02-23T02:16:05;98093.03;;;9.29;59.17
80248;BME280;69560;52.206;21.018;2024-02-23T02:18:32;98086.61;;;9.31;59.22
80248;BME280;69560;52.206;21.018;2024-02-23T02:20:59;98095.05;;;9.32;59.14
80248;BME280;69560;52.206;21.018;2024-02-23T02:23:25;98083.76;;;9.31;59.20
80248;BME280;69560;52.206;21.018;2024-02-23T02:25:56;98081.94;;;9.31;59.33
80248;BME280;69560;52.206;21.018;2024-02-23T02:28:24;98085.45;;;9.29;59.27
80248;BME280;69560;52.206;21.018;2024-02-23T02:30:51;98088.08;;;9.27;59.21
80248;BME280;69560;52.206;21.018;2024-02-23T02:33:19;98086.02;;;9.27;59.38
80248;BME280;69560;52.206;21.018;2024-02-23T02:35:45;98089.80;;;9.28;59.43
80248;BME280;69560;52.206;21.018;2024-02-23T02:38:12;98084.49;;;9.29;59.40
80248;BME280;69560;52.206;21.018;2024-02-23T02:40:39;98078.33;;;9.29;59.41
80248;BME280;69560;52.206;21.018;2024-02-23T02:43:06;98082.84;;;9.28;59.31
80248;BME280;69560;52.206;21.018;2024-02-23T02:45:33;98077.64;;;9.28;59.54
80248;BME280;69560;52.206;21.018;2024-02-23T02:48:00;98086.33;;;9.29;59.59
80248;BME280;69560;52.206;21.018;2024-02-23T02:50:30;98082.22;;;9.28;59.54
80248;BME280;69560;52.206;21.018;2024-02-23T02:52:57;98084.66;;;9.28;59.58
80248;BME280;69560;52.206;21.018;2024-02-23T02:55:23;98084.41;;;9.29;59.65
80248;BME280;69560;52.206;21.018;2024-02-23T02:57:50;98083.14;;;9.29;59.57
80248;BME280;69560;52.206;21.018;2024-02-23T03:00:16;98090.08;;;9.32;59.75
80248;BME280;69560;52.206;21.018;2024-02-23T03:02:43;98085.48;;;9.33;59.63
80248;BME280;69560;52.206;21.018;2024-02-23T03:05:09;98082.54;;;9.34;59.63
80248;BME280;69560;52.206;21.018;2024-02-23T03:07:36;98085.84;;;9.36;59.67
80248;BME280;69560;52.206;21.018;2024-02-23T03:10:03;98090.59;;;9.35;59.69
80248;BME280;69560;52.206;21.018;2024-02-23T03:12:29;98086.25;;;9.34;59.72
80248;BME280;69560;52.206;21.018;2024-02-23T03:14:59;98092.98;;;9.33;59.86
80248;BME280;69560;52.206;21.018;2024-02-23T03:17:26;98091.66;;;9.33;59.99
80248;BME280;69560;52.206;21.018;2024-02-23T03:19:52;98094.73;;;9.34;60.09
80248;BME280;69560;52.206;21.018;2024-02-23T03:22:19;98094.02;;;9.34;60.05
80248;BME280;69560;52.206;21.018;2024-02-23T03:24:45;98101.35;;;9.34;60.30
80248;BME280;69560;52.206;21.018;2024-02-23T03:27:12;98106.11;;;9.33;60.34
80248;BME280;69560;52.206;21.018;2024-02-23T03:29:39;98101.10;;;9.29;60.53
80248;BME280;69560;52.206;21.018;2024-02-23T03:32:06;98109.02;;;9.28;60.68
80248;BME280;69560;52.206;21.018;2024-02-23T03:34:32;98113.91;;;9.27;60.83
80248;BME280;69560;52.206;21.018;2024-02-23T03:36:59;98109.16;;;9.29;61.06
80248;BME280;69560;52.206;21.018;2024-02-23T03:39:27;98110.10;;;9.29;61.08
80248;BME280;69560;52.206;21.018;2024-02-23T03:41:55;98105.17;;;9.24;61.16
80248;BME280;69560;52.206;21.018;2024-02-23T03:44:21;98109.78;;;9.20;61.27
80248;BME280;69560;52.206;21.018;2024-02-23T03:46:48;98111.41;;;9.16;61.48
80248;BME280;69560;52.206;21.018;2024-02-23T03:49:14;98113.95;;;9.14;61.60
80248;BME280;69560;52.206;21.018;2024-02-23T03:51:41;98111.50;;;9.15;61.83
80248;BME280;69560;52.206;21.018;2024-02-23T03:54:07;98117.58;;;9.15;61.94
80248;BME280;69560;52.206;21.018;2024-02-23T03:56:41;98126.92;;;9.13;62.03
80248;BME280;69560;52.206;21.018;2024-02-23T03:59:08;98132.40;;;9.11;62.05
80248;BME280;69560;52.206;21.018;2024-02-23T04:01:38;98127.68;;;9.08;62.17
80248;BME280;69560;52.206;21.018;2024-02-23T04:04:05;98130.07;;;9.06;62.31
80248;BME280;69560;52.206;21.018;2024-02-23T04:06:33;98129.59;;;9.07;62.49
80248;BME280;69560;52.206;21.018;2024-02-23T04:09:00;98136.06;;;9.08;62.54
80248;BME280;69560;52.206;21.018;2024-02-23T04:11:26;98136.64;;;9.04;62.65
80248;BME280;69560;52.206;21.018;2024-02-23T04:13:53;98140.38;;;9.02;62.84
80248;BME280;69560;52.206;21.018;2024-02-23T04:16:23;98141.17;;;9.01;63.05
80248;BME280;69560;52.206;21.018;2024-02-23T04:18:50;98143.77;;;9.03;63.10
80248;BME280;69560;52.206;21.018;2024-02-23T04:21:17;98142.91;;;9.01;63.16
80248;BME280;69560;52.206;21.018;2024-02-23T04:23:44;98145.52;;;9.01;63.23
80248;BME280;69560;52.206;21.018;2024-02-23T04:26:10;98147.83;;;8.99;63.32
80248;BME280;69560;52.206;21.018;2024-02-23T04:28:40;98147.06;;;8.95;63.41
80248;BME280;69560;52.206;21.018;2024-02-23T04:31:08;98158.77;;;8.95;63.54
80248;BME280;69560;52.206;21.018;2024-02-23T04:33:36;98155.38;;;8.95;63.68
80248;BME280;69560;52.206;21.018;2024-02-23T04:36:03;98155.61;;;8.94;63.69
80248;BME280;69560;52.206;21.018;2024-02-23T04:38:30;98152.61;;;8.93;63.91
80248;BME280;69560;52.206;21.018;2024-02-23T04:40:58;98154.42;;;8.94;63.97
80248;BME280;69560;52.206;21.018;2024-02-23T04:43:24;98156.02;;;8.93;63.96
80248;BME280;69560;52.206;21.018;2024-02-23T04:45:51;98151.84;;;8.91;64.03
80248;BME280;69560;52.206;21.018;2024-02-23T04:48:18;98154.04;;;8.91;64.13
80248;BME280;69560;52.206;21.018;2024-02-23T04:50:44;98159.36;;;8.88;64.20
80248;BME280;69560;52.206;21.018;2024-02-23T04:53:11;98157.71;;;8.86;64.32
80248;BME280;69560;52.206;21.018;2024-02-23T04:55:38;98160.86;;;8.88;64.44
80248;BME280;69560;52.206;21.018;2024-02-23T04:58:04;98167.02;;;8.87;64.56
80248;BME280;69560;52.206;21.018;2024-02-23T05:00:31;98169.33;;;8.88;64.56
80248;BME280;69560;52.206;21.018;2024-02-23T05:03:00;98177.70;;;8.86;64.66
80248;BME280;69560;52.206;21.018;2024-02-23T05:05:32;98181.02;;;8.85;64.85
80248;BME280;69560;52.206;21.018;2024-02-23T05:07:59;98180.86;;;8.84;64.84
80248;BME280;69560;52.206;21.018;2024-02-23T05:10:26;98182.30;;;8.84;64.90
80248;BME280;69560;52.206;21.018;2024-02-23T05:12:53;98186.54;;;8.88;65.12
80248;BME280;69560;52.206;21.018;2024-02-23T05:15:19;98185.65;;;8.91;65.22
80248;BME280;69560;52.206;21.018;2024-02-23T05:17:46;98189.11;;;8.90;65.21
80248;BME280;69560;52.206;21.018;2024-02-23T05:20:13;98190.39;;;8.91;65.27
80248;BME280;69560;52.206;21.018;2024-02-23T05:22:40;98195.59;;;8.91;65.36
80248;BME280;69560;52.206;21.018;2024-02-23T05:25:07;98193.44;;;8.85;65.30
80248;BME280;69560;52.206;21.018;2024-02-23T05:27:34;98199.26;;;8.86;65.43
80248;BME280;69560;52.206;21.018;2024-02-23T05:30:01;98199.77;;;8.82;65.52
80248;BME280;69560;52.206;21.018;2024-02-23T05:32:27;98204.19;;;8.81;65.60
80248;BME280;69560;52.206;21.018;2024-02-23T05:34:54;98205.63;;;8.79;65.74
80248;BME280;69560;52.206;21.018;2024-02-23T05:37:23;98213.52;;;8.78;65.82
80248;BME280;69560;52.206;21.018;2024-02-23T05:39:50;98215.12;;;8.74;65.92
80248;BME280;69560;52.206;21.018;2024-02-23T05:42:17;98215.21;;;8.73;66.04
80248;BME280;69560;52.206;21.018;2024-02-23T05:44:43;98217.84;;;8.70;66.21
80248;BME280;69560;52.206;21.018;2024-02-23T05:47:11;98222.26;;;8.70;66.39
80248;BME280;69560;52.206;21.018;2024-02-23T05:49:40;98224.15;;;8.70;66.45
80248;BME280;69560;52.206;21.018;2024-02-23T05:52:06;98229.30;;;8.69;66.59
80248;BME280;69560;52.206;21.018;2024-02-23T05:54:33;98232.98;;;8.71;66.68
80248;BME280;69560;52.206;21.018;2024-02-23T05:57:00;98232.91;;;8.72;66.80
80248;BME280;69560;52.206;21.018;2024-02-23T05:59:27;98235.98;;;8.72;66.89
80248;BME280;69560;52.206;21.018;2024-02-23T06:01:54;98235.68;;;8.71;66.99
80248;BME280;69560;52.206;21.018;2024-02-23T06:04:23;98246.58;;;8.73;67.07
80248;BME280;69560;52.206;21.018;2024-02-23T06:06:50;98255.95;;;8.73;67.09
80248;BME280;69560;52.206;21.018;2024-02-23T06:09:16;98255.80;;;8.75;67.16
80248;BME280;69560;52.206;21.018;2024-02-23T06:11:43;98259.81;;;8.76;67.21
80248;BME280;69560;52.206;21.018;2024-02-23T06:14:09;98264.23;;;8.78;67.36
80248;BME280;69560;52.206;21.018;2024-02-23T06:16:37;98265.58;;;8.78;67.41
80248;BME280;69560;52.206;21.018;2024-02-23T06:19:04;98264.80;;;8.76;67.40
80248;BME280;69560;52.206;21.018;2024-02-23T06:21:30;98271.20;;;8.74;67.51
80248;BME280;69560;52.206;21.018;2024-02-23T06:23:58;98271.73;;;8.78;67.61
80248;BME280;69560;52.206;21.018;2024-02-23T06:26:25;98276.23;;;8.79;67.67
80248;BME280;69560;52.206;21.018;2024-02-23T06:28:51;98279.08;;;8.79;67.68
80248;BME280;69560;52.206;21.018;2024-02-23T06:31:18;98278.13;;;8.81;67.78
80248;BME280;69560;52.206;21.018;2024-02-23T06:33:44;98282.87;;;8.80;67.76
80248;BME280;69560;52.206;21.018;2024-02-23T06:36:15;98289.19;;;8.79;67.96
80248;BME280;69560;52.206;21.018;2024-02-23T06:38:42;98288.71;;;8.78;67.96
80248;BME280;69560;52.206;21.018;2024-02-23T06:41:08;98293.54;;;8.77;68.12
80248;BME280;69560;52.206;21.018;2024-02-23T06:43:37;98297.48;;;8.79;68.06
80248;BME280;69560;52.206;21.018;2024-02-23T06:46:08;98298.65;;;8.80;68.17
80248;BME280;69560;52.206;21.018;2024-02-23T06:48:36;98300.54;;;8.81;68.10
80248;BME280;69560;52.206;21.018;2024-02-23T06:51:06;98303.86;;;8.83;68.28
80248;BME280;69560;52.206;21.018;2024-02-23T06:53:36;98306.85;;;8.86;68.37
80248;BME280;69560;52.206;21.018;2024-02-23T06:56:04;98304.95;;;8.87;68.35
80248;BME280;69560;52.206;21.018;2024-02-23T06:58:30;98308.65;;;8.89;68.41
80248;BME280;69560;52.206;21.018;2024-02-23T07:00:57;98312.27;;;8.91;68.42
80248;BME280;69560;52.206;21.018;2024-02-23T07:03:23;98313.23;;;8.91;68.47
80248;BME280;69560;52.206;21.018;2024-02-23T07:05:51;98323.09;;;8.94;68.58
80248;BME280;69560;52.206;21.018;2024-02-23T07:08:18;98323.23;;;8.98;68.53
80248;BME280;69560;52.206;21.018;2024-02-23T07:10:44;98321.46;;;9.02;68.63
80248;BME280;69560;52.206;21.018;2024-02-23T07:13:11;98327.63;;;9.02;68.62
80248;BME280;69560;52.206;21.018;2024-02-23T07:15:38;98333.17;;;9.00;68.49
80248;BME280;69560;52.206;21.018;2024-02-23T07:18:05;98337.98;;;8.98;68.67
80248;BME280;69560;52.206;21.018;2024-02-23T07:20:35;98337.46;;;8.94;68.52
80248;BME280;69560;52.206;21.018;2024-02-23T07:23:02;98342.28;;;8.93;68.69
80248;BME280;69560;52.206;21.018;2024-02-23T07:25:29;98346.95;;;8.91;68.70
80248;BME280;69560;52.206;21.018;2024-02-23T07:27:56;98353.91;;;8.89;68.87
80248;BME280;69560;52.206;21.018;2024-02-23T07:30:22;98357.38;;;8.91;68.93
80248;BME280;69560;52.206;21.018;2024-02-23T07:32:49;98352.80;;;8.92;68.97
80248;BME280;69560;52.206;21.018;2024-02-23T07:35:15;98353.18;;;8.92;68.98
80248;BME280;69560;52.206;21.018;2024-02-23T07:37:42;98358.08;;;8.93;69.04
80248;BME280;69560;52.206;21.018;2024-02-23T07:40:09;98359.65;;;8.96;69.24
80248;BME280;69560;52.206;21.018;2024-02-23T07:42:36;98358.98;;;9.02;69.33
80248;BME280;69560;52.206;21.018;2024-02-23T07:45:04;98362.45;;;9.04;69.19
80248;BME280;69560;52.206;21.018;2024-02-23T07:47:31;98366.78;;;9.07;69.29
80248;BME280;69560;52.206;21.018;2024-02-23T07:49:58;98372.94;;;9.09;69.33
80248;BME280;69560;52.206;21.018;2024-02-23T07:52:25;98377.52;;;9.09;69.31
80248;BME280;69560;52.206;21.018;2024-02-23T07:54:52;98381.38;;;9.11;69.36
80248;BME280;69560;52.206;21.018;2024-02-23T07:57:19;98389.27;;;9.14;69.36
80248;BME280;69560;52.206;21.018;2024-02-23T07:59:47;98393.30;;;9.14;69.33
80248;BME280;69560;52.206;21.018;2024-02-23T08:02:15;98396.63;;;9.17;69.39
80248;BME280;69560;52.206;21.018;2024-02-23T08:04:41;98399.05;;;9.18;69.36
80248;BME280;69560;52.206;21.018;2024-02-23T08:07:09;98393.20;;;9.20;69.44
80248;BME280;69560;52.206;21.018;2024-02-23T08:09:35;98399.84;;;9.21;69.37
80248;BME280;69560;52.206;21.018;2024-02-23T08:12:02;98405.59;;;9.24;69.33
80248;BME280;69560;52.206;21.018;2024-02-23T08:14:29;98408.67;;;9.25;69.41
80248;BME280;69560;52.206;21.018;2024-02-23T08:16:55;98415.20;;;9.28;69.38
80248;BME280;69560;52.206;21.018;2024-02-23T08:19:22;98417.27;;;9.30;69.40
80248;BME280;69560;52.206;21.018;2024-02-23T08:21:49;98417.80;;;9.30;69.55
80248;BME280;69560;52.206;21.018;2024-02-23T08:24:15;98415.42;;;9.31;69.56
80248;BME280;69560;52.206;21.018;2024-02-23T08:26:42;98414.80;;;9.31;69.51
80248;BME280;69560;52.206;21.018;2024-02-23T08:29:09;98424.83;;;9.33;69.62
80248;BME280;69560;52.206;21.018;2024-02-23T08:31:35;98423.15;;;9.36;69.65
80248;BME280;69560;52.206;21.018;2024-02-23T08:34:02;98423.30;;;9.38;69.60
80248;BME280;69560;52.206;21.018;2024-02-23T08:36:28;98425.44;;;9.38;69.59
80248;BME280;69560;52.206;21.018;2024-02-23T08:38:55;98433.26;;;9.40;69.70
80248;BME280;69560;52.206;21.018;2024-02-23T08:41:22;98432.20;;;9.44;69.74
80248;BME280;69560;52.206;21.018;2024-02-23T08:43:48;98432.66;;;9.47;69.67
80248;BME280;69560;52.206;21.018;2024-02-23T08:46:16;98432.88;;;9.51;69.89
80248;BME280;69560;52.206;21.018;2024-02-23T08:48:43;98442.17;;;9.57;69.96
80248;BME280;69560;52.206;21.018;2024-02-23T08:51:10;98450.46;;;9.59;69.79
80248;BME280;69560;52.206;21.018;2024-02-23T08:53:36;98449.52;;;9.61;69.80
80248;BME280;69560;52.206;21.018;2024-02-23T08:56:03;98453.22;;;9.63;69.67
80248;BME280;69560;52.206;21.018;2024-02-23T08:58:30;98457.41;;;9.64;69.69
80248;BME280;69560;52.206;21.018;2024-02-23T09:00:57;98460.02;;;9.65;69.63
80248;BME280;69560;52.206;21.018;2024-02-23T09:03:23;98459.42;;;9.69;69.78
80248;BME280;69560;52.206;21.018;2024-02-23T09:05:51;98460.21;;;9.71;69.76
80248;BME280;69560;52.206;21.018;2024-02-23T09:08:17;98464.53;;;9.77;69.82
80248;BME280;69560;52.206;21.018;2024-02-23T09:10:44;98459.69;;;9.80;69.79
80248;BME280;69560;52.206;21.018;2024-02-23T09:13:10;98461.41;;;9.83;69.77
80248;BME280;69560;52.206;21.018;2024-02-23T09:15:37;98461.55;;;9.85;69.75
80248;BME280;69560;52.206;21.018;2024-02-23T09:18:04;98464.87;;;9.86;69.76
80248;BME280;69560;52.206;21.018;2024-02-23T09:20:31;98467.28;;;9.92;69.85
80248;BME280;69560;52.206;21.018;2024-02-23T09:22:57;98468.98;;;9.99;69.94
80248;BME280;69560;52.206;21.018;2024-02-23T09:25:24;98470.96;;;10.11;69.98
80248;BME280;69560;52.206;21.018;2024-02-23T09:27:50;98477.85;;;10.23;70.07
80248;BME280;69560;52.206;21.018;2024-02-23T09:30:17;98476.67;;;10.33;69.96
80248;BME280;69560;52.206;21.018;2024-02-23T09:32:44;98475.70;;;10.45;69.83
80248;BME280;69560;52.206;21.018;2024-02-23T09:35:10;98480.11;;;10.57;69.83
80248;BME280;69560;52.206;21.018;2024-02-23T09:37:37;98484.39;;;10.66;69.74
80248;BME280;69560;52.206;21.018;2024-02-23T09:40:04;98485.42;;;10.73;69.57
80248;BME280;69560;52.206;21.018;2024-02-23T09:42:32;98486.95;;;10.71;69.24
80248;BME280;69560;52.206;21.018;2024-02-23T09:45:00;98495.34;;;10.65;69.13
80248;BME280;69560;52.206;21.018;2024-02-23T09:47:27;98498.42;;;10.65;69.30
80248;BME280;69560;52.206;21.018;2024-02-23T09:49:55;98495.95;;;10.67;69.36
80248;BME280;69560;52.206;21.018;2024-02-23T09:52:22;98501.27;;;10.65;69.17
80248;BME280;69560;52.206;21.018;2024-02-23T09:54:49;98503.28;;;10.61;69.06
80248;BME280;69560;52.206;21.018;2024-02-23T09:57:16;98510.14;;;10.64;69.25
80248;BME280;69560;52.206;21.018;2024-02-23T09:59:46;98514.71;;;10.67;69.27
80248;BME280;69560;52.206;21.018;2024-02-23T10:02:15;98518.20;;;10.69;69.22
80248;BME280;69560;52.206;21.018;2024-02-23T10:04:43;98519.08;;;10.67;69.16
80248;BME280;69560;52.206;21.018;2024-02-23T10:07:10;98518.52;;;10.68;69.34
80248;BME280;69560;52.206;21.018;2024-02-23T10:09:40;98516.20;;;10.69;69.18
80248;BME280;69560;52.206;21.018;2024-02-23T10:12:07;98516.19;;;10.71;69.29
80248;BME280;69560;52.206;21.018;2024-02-23T10:14:34;98516.76;;;10.78;69.44
80248;BME280;69560;52.206;21.018;2024-02-23T10:17:00;98520.27;;;10.84;69.31
80248;BME280;69560;52.206;21.018;2024-02-23T10:19:28;98522.69;;;10.88;69.21
80248;BME280;69560;52.206;21.018;2024-02-23T10:21:56;98526.54;;;10.92;69.34
80248;BME280;69560;52.206;21.018;2024-02-23T10:24:23;98525.59;;;10.92;69.24
80248;BME280;69560;52.206;21.018;2024-02-23T10:26:51;98533.80;;;10.94;69.31
80248;BME280;69560;52.206;21.018;2024-02-23T10:29:18;98539.33;;;10.97;69.22
80248;BME280;69560;52.206;21.018;2024-02-23T10:31:47;98534.38;;;11.00;69.27
80248;BME280;69560;52.206;21.018;2024-02-23T10:34:19;98538.82;;;10.99;69.02
80248;BME280;69560;52.206;21.018;2024-02-23T10:36:46;98542.44;;;10.94;68.90
80248;BME280;69560;52.206;21.018;2024-02-23T10:39:18;98541.07;;;10.89;68.79
80248;BME280;69560;52.206;21.018;2024-02-23T10:41:56;98548.69;;;10.87;69.00
80248;BME280;69560;52.206;21.018;2024-02-23T10:44:27;98551.84;;;10.89;69.10
80248;BME280;69560;52.206;21.018;2024-02-23T10:46:54;98554.08;;;10.88;69.00
80248;BME280;69560;52.206;21.018;2024-02-23T10:49:23;98556.86;;;10.86;68.94
80248;BME280;69560;52.206;21.018;2024-02-23T10:51:53;98558.16;;;10.91;69.16
80248;BME280;69560;52.206;21.018;2024-02-23T10:54:20;98563.42;;;10.97;69.19
80248;BME280;69560;52.206;21.018;2024-02-23T10:56:49;98562.23;;;10.98;69.09
80248;BME280;69560;52.206;21.018;2024-02-23T10:59:17;98565.83;;;10.94;69.08
80248;BME280;69560;52.206;21.018;2024-02-23T11:01:51;98572.48;;;10.96;69.24
80248;BME280;69560;52.206;21.018;2024-02-23T11:04:19;98572.20;;;10.99;69.20
80248;BME280;69560;52.206;21.018;2024-02-23T11:06:56;98574.15;;;11.02;69.29
80248;BME280;69560;52.206;21.018;2024-02-23T11:09:24;98578.27;;;11.02;68.97
80248;BME280;69560;52.206;21.018;2024-02-23T11:11:56;98577.93;;;11.05;69.16
80248;BME280;69560;52.206;21.018;2024-02-23T11:14:34;98583.38;;;11.08;69.17
80248;BME280;69560;52.206;21.018;2024-02-23T11:17:01;98587.80;;;11.11;69.23
80248;BME280;69560;52.206;21.018;2024-02-23T11:22:04;98594.33;;;11.14;69.25
80248;BME280;69560;52.206;21.018;2024-02-23T11:24:32;98598.77;;;11.15;69.03
80248;BME280;69560;52.206;21.018;2024-02-23T11:26:59;98596.45;;;11.18;69.05
80248;BME280;69560;52.206;21.018;2024-02-23T11:29:27;98599.78;;;11.17;68.95
80248;BME280;69560;52.206;21.018;2024-02-23T11:31:55;98603.94;;;11.14;68.89
80248;BME280;69560;52.206;21.018;2024-02-23T11:34:27;98602.10;;;11.15;69.09
80248;BME280;69560;52.206;21.018;2024-02-23T11:36:54;98603.13;;;11.15;69.11
80248;BME280;69560;52.206;21.018;2024-02-23T11:39:22;98607.56;;;11.16;68.94
80248;BME280;69560;52.206;21.018;2024-02-23T11:41:50;98611.14;;;11.15;68.94
80248;BME280;69560;52.206;21.018;2024-02-23T11:44:17;98621.22;;;11.13;68.87
80248;BME280;69560;52.206;21.018;2024-02-23T11:46:44;98620.46;;;11.10;68.75
80248;BME280;69560;52.206;21.018;2024-02-23T11:49:14;98619.21;;;11.06;68.72
80248;BME280;69560;52.206;21.018;2024-02-23T11:51:42;98623.98;;;11.06;68.95
80248;BME280;69560;52.206;21.018;2024-02-23T11:54:09;98629.30;;;11.04;68.96
80248;BME280;69560;52.206;21.018;2024-02-23T11:56:35;98634.02;;;11.08;69.18
80248;BME280;69560;52.206;21.018;2024-02-23T11:59:02;98634.78;;;11.14;69.29
80248;BME280;69560;52.206;21.018;2024-02-23T12:01:30;98637.19;;;11.18;69.21
80248;BME280;69560;52.206;21.018;2024-02-23T12:03:57;98645.04;;;11.19;69.14
80248;BME280;69560;52.206;21.018;2024-02-23T12:06:24;98646.88;;;11.17;69.12
80248;BME280;69560;52.206;21.018;2024-02-23T12:08:53;98647.69;;;11.15;69.05
80248;BME280;69560;52.206;21.018;2024-02-23T12:11:20;98652.00;;;11.11;69.14
80248;BME280;69560;52.206;21.018;2024-02-23T12:13:47;98648.98;;;11.14;69.36
80248;BME280;69560;52.206;21.018;2024-02-23T12:16:14;98650.29;;;11.17;69.36
80248;BME280;69560;52.206;21.018;2024-02-23T12:18:41;98654.52;;;11.22;69.43
80248;BME280;69560;52.206;21.018;2024-02-23T12:21:08;98659.73;;;11.26;69.31
80248;BME280;69560;52.206;21.018;2024-02-23T12:23:42;98660.55;;;11.22;69.11
80248;BME280;69560;52.206;21.018;2024-02-23T12:26:16;98663.05;;;11.18;69.07
80248;BME280;69560;52.206;21.018;2024-02-23T12:28:44;98662.84;;;11.15;69.05
80248;BME280;69560;52.206;21.018;2024-02-23T12:31:11;98671.89;;;11.12;69.17
80248;BME280;69560;52.206;21.018;2024-02-23T12:33:39;98670.54;;;11.13;69.36
80248;BME280;69560;52.206;21.018;2024-02-23T12:36:07;98674.95;;;11.17;69.36
80248;BME280;69560;52.206;21.018;2024-02-23T12:38:35;98677.56;;;11.17;69.32
80248;BME280;69560;52.206;21.018;2024-02-23T12:41:02;98675.98;;;11.18;69.28
80248;BME280;69560;52.206;21.018;2024-02-23T12:43:29;98675.10;;;11.18;69.44
80248;BME280;69560;52.206;21.018;2024-02-23T12:45:57;98678.00;;;11.21;69.50
80248;BME280;69560;52.206;21.018;2024-02-23T12:48:24;98675.98;;;11.25;69.67
80248;BME280;69560;52.206;21.018;2024-02-23T12:50:51;98679.73;;;11.32;69.79
80248;BME280;69560;52.206;21.018;2024-02-23T12:53:38;98676.77;;;11.36;69.53
80248;BME280;69560;52.206;21.018;2024-02-23T12:56:10;98678.80;;;11.39;69.48
80248;BME280;69560;52.206;21.018;2024-02-23T12:58:38;98680.86;;;11.41;69.48
80248;BME280;69560;52.206;21.018;2024-02-23T13:01:05;98680.16;;;11.47;69.63